createdAt,value
2022-11-30T00:00:20.043Z,21.24
2022-11-30T00:02:21.475Z,21.28
2022-11-30T00:04:22.845Z,21.33
2022-11-30T00:06:24.271Z,21.41
2022-11-30T00:08:29.225Z,21.48
2022-11-30T00:10:30.556Z,21.54
2022-11-30T00:12:31.827Z,21.56
2022-11-30T00:14:33.100Z,21.60
2022-11-30T00:16:34.440Z,21.61
2022-11-30T00:18:35.855Z,21.64
2022-11-30T00:20:37.149Z,21.64
2022-11-30T00:22:38.437Z,21.66
2022-11-30T00:24:39.747Z,21.64
2022-11-30T00:26:41.075Z,21.63
2022-11-30T00:28:42.437Z,21.62
2022-11-30T00:30:43.890Z,21.61
2022-11-30T00:32:45.297Z,21.62
2022-11-30T00:34:46.771Z,21.59
2022-11-30T00:36:48.216Z,21.58
2022-11-30T00:38:49.512Z,21.57
2022-11-30T00:40:51.788Z,21.52
2022-11-30T00:42:53.071Z,21.49
2022-11-30T00:44:54.379Z,21.46
2022-11-30T00:46:55.657Z,21.43
2022-11-30T00:48:56.993Z,21.45
2022-11-30T00:50:58.474Z,21.48
2022-11-30T00:52:59.764Z,21.40
2022-11-30T00:55:04.103Z,21.33
2022-11-30T00:57:05.770Z,21.28
2022-11-30T00:59:07.102Z,21.25
2022-11-30T01:01:08.515Z,21.21
2022-11-30T01:03:09.870Z,21.20
2022-11-30T01:05:11.159Z,21.20
2022-11-30T01:07:12.483Z,21.17
2022-11-30T01:09:13.780Z,21.18
2022-11-30T01:11:15.071Z,21.19
2022-11-30T01:13:16.407Z,21.20
2022-11-30T01:15:17.721Z,21.20
2022-11-30T01:17:19.021Z,21.21
2022-11-30T01:19:20.325Z,21.22
2022-11-30T01:21:21.587Z,21.27
2022-11-30T01:23:22.877Z,21.28
2022-11-30T01:25:24.178Z,21.34
2022-11-30T01:27:25.496Z,21.37
2022-11-30T01:29:26.774Z,21.42
2022-11-30T01:31:28.036Z,21.47
2022-11-30T01:33:29.308Z,21.49
2022-11-30T01:35:30.591Z,21.52
2022-11-30T01:37:31.876Z,21.54
2022-11-30T01:39:33.158Z,21.59
2022-11-30T01:41:34.419Z,21.60
2022-11-30T01:43:35.692Z,21.63
2022-11-30T01:45:37.025Z,21.63
2022-11-30T01:47:39.277Z,21.62
2022-11-30T01:49:40.588Z,21.63
2022-11-30T01:51:41.871Z,21.62
2022-11-30T01:53:43.144Z,21.60
2022-11-30T01:55:44.572Z,21.58
2022-11-30T01:57:45.910Z,21.62
2022-11-30T01:59:47.189Z,21.63
2022-11-30T02:01:48.532Z,21.59
2022-11-30T02:03:49.897Z,21.58
2022-11-30T02:05:51.216Z,21.60
2022-11-30T02:07:52.592Z,21.58
2022-11-30T02:09:54.017Z,21.51
2022-11-30T02:11:55.301Z,21.47
2022-11-30T02:13:56.591Z,20.60
2022-11-30T02:15:58.159Z,21.37
2022-11-30T02:17:59.898Z,21.33
2022-11-30T02:20:01.192Z,21.29
2022-11-30T02:22:02.900Z,21.26
2022-11-30T02:24:04.164Z,21.24
2022-11-30T02:26:05.595Z,21.22
2022-11-30T02:28:06.939Z,20.99
2022-11-30T02:30:08.236Z,21.20
2022-11-30T02:32:09.587Z,21.19
2022-11-30T02:34:10.856Z,21.18
2022-11-30T02:36:12.128Z,21.18
2022-11-30T02:38:13.416Z,21.20
2022-11-30T02:40:14.692Z,21.19
2022-11-30T02:42:16.106Z,21.15
2022-11-30T02:44:17.378Z,21.15
2022-11-30T02:46:18.691Z,21.18
2022-11-30T02:48:20.039Z,21.24
2022-11-30T02:50:21.316Z,21.27
2022-11-30T02:52:22.623Z,21.32
2022-11-30T02:54:23.921Z,21.37
2022-11-30T02:56:25.188Z,21.41
2022-11-30T02:58:26.471Z,21.48
2022-11-30T03:00:27.799Z,21.51
2022-11-30T03:02:29.123Z,21.59
2022-11-30T03:04:30.498Z,21.75
2022-11-30T03:06:31.800Z,21.79
2022-11-30T03:08:33.060Z,21.84
2022-11-30T03:10:34.324Z,21.85
2022-11-30T03:12:35.651Z,21.87
2022-11-30T03:14:36.974Z,21.86
2022-11-30T03:16:38.287Z,21.87
2022-11-30T03:18:39.571Z,21.85
2022-11-30T03:20:40.934Z,21.86
2022-11-30T03:22:42.656Z,21.85
2022-11-30T03:24:44.015Z,21.84
2022-11-30T03:26:45.511Z,21.77
2022-11-30T03:28:46.800Z,21.74
2022-11-30T03:30:48.109Z,21.68
2022-11-30T03:32:49.419Z,21.61
2022-11-30T03:34:50.734Z,21.55
2022-11-30T03:36:52.052Z,21.52
2022-11-30T03:38:53.377Z,21.51
2022-11-30T03:40:54.657Z,21.53
2022-11-30T03:42:55.963Z,21.61
2022-11-30T03:44:57.244Z,21.43
2022-11-30T03:46:58.572Z,21.27
2022-11-30T03:48:59.963Z,21.15
2022-11-30T03:51:01.244Z,21.06
2022-11-30T03:53:02.588Z,20.98
2022-11-30T03:55:04.113Z,19.27
2022-11-30T03:57:05.412Z,18.73
2022-11-30T03:59:06.982Z,19.53
2022-11-30T04:01:08.279Z,20.07
2022-11-30T04:03:09.594Z,20.38
2022-11-30T04:05:10.940Z,20.58
2022-11-30T04:07:12.269Z,20.75
2022-11-30T04:09:13.544Z,20.66
2022-11-30T04:11:14.824Z,20.89
2022-11-30T04:13:16.156Z,21.10
2022-11-30T04:15:17.441Z,21.23
2022-11-30T04:17:18.772Z,21.33
2022-11-30T04:19:20.074Z,21.40
2022-11-30T04:21:21.348Z,21.44
2022-11-30T04:23:22.648Z,21.50
2022-11-30T04:25:23.976Z,21.54
2022-11-30T04:27:25.271Z,21.57
2022-11-30T04:29:26.573Z,21.61
2022-11-30T04:31:27.891Z,21.63
2022-11-30T04:33:29.184Z,21.65
2022-11-30T04:35:30.444Z,21.65
2022-11-30T04:37:31.724Z,21.64
2022-11-30T04:39:33.017Z,21.65
2022-11-30T04:41:34.463Z,21.67
2022-11-30T04:43:35.806Z,21.63
2022-11-30T04:45:37.119Z,21.62
2022-11-30T04:47:38.396Z,21.61
2022-11-30T04:49:39.690Z,21.59
2022-11-30T04:51:41.024Z,21.54
2022-11-30T04:53:42.284Z,21.49
2022-11-30T04:55:43.606Z,21.45
2022-11-30T04:57:44.900Z,21.39
2022-11-30T04:59:46.185Z,21.33
2022-11-30T05:01:47.504Z,21.27
2022-11-30T05:03:48.911Z,21.22
2022-11-30T05:05:50.216Z,21.16
2022-11-30T05:07:51.631Z,21.09
2022-11-30T05:09:53.911Z,21.02
2022-11-30T05:11:55.241Z,20.95
2022-11-30T05:13:56.813Z,20.86
2022-11-30T05:15:58.310Z,20.77
2022-11-30T05:17:59.717Z,20.73
2022-11-30T05:20:00.988Z,20.66
2022-11-30T05:22:02.337Z,20.61
2022-11-30T05:24:03.632Z,20.54
2022-11-30T05:26:04.956Z,20.51
2022-11-30T05:28:06.232Z,20.49
2022-11-30T05:30:07.507Z,20.50
2022-11-30T05:32:08.789Z,20.51
2022-11-30T05:34:10.087Z,20.50
2022-11-30T05:36:11.373Z,20.53
2022-11-30T05:38:12.724Z,20.61
2022-11-30T05:40:13.988Z,20.68
2022-11-30T05:42:15.259Z,20.77
2022-11-30T05:44:16.586Z,20.87
2022-11-30T05:46:17.918Z,20.93
2022-11-30T05:48:19.200Z,21.01
2022-11-30T05:50:20.496Z,21.11
2022-11-30T05:52:21.757Z,21.16
2022-11-30T05:54:23.064Z,21.20
2022-11-30T05:56:24.341Z,21.27
2022-11-30T05:58:25.620Z,21.31
2022-11-30T06:00:26.923Z,21.38
2022-11-30T06:02:28.672Z,21.41
2022-11-30T06:04:30.046Z,21.45
2022-11-30T06:06:31.357Z,21.44
2022-11-30T06:08:32.668Z,21.45
2022-11-30T06:10:33.994Z,21.45
2022-11-30T06:12:35.484Z,21.49
2022-11-30T06:14:36.809Z,21.48
2022-11-30T06:16:38.162Z,21.51
2022-11-30T06:18:39.628Z,21.50
2022-11-30T06:20:40.896Z,21.50
2022-11-30T06:22:42.205Z,21.46
2022-11-30T06:24:43.651Z,21.43
2022-11-30T06:26:45.044Z,21.40
2022-11-30T06:28:48.602Z,21.37
2022-11-30T06:30:50.234Z,21.32
2022-11-30T06:32:51.535Z,21.27
2022-11-30T06:34:52.898Z,21.24
2022-11-30T06:36:54.192Z,21.17
2022-11-30T06:38:55.454Z,21.12
2022-11-30T06:40:56.737Z,21.06
2022-11-30T06:42:58.076Z,21.01
2022-11-30T06:44:59.361Z,20.98
2022-11-30T06:47:00.689Z,20.93
2022-11-30T06:49:01.977Z,20.90
2022-11-30T06:51:03.289Z,20.86
2022-11-30T06:53:04.569Z,20.83
2022-11-30T06:55:05.843Z,20.80
2022-11-30T06:57:07.139Z,20.77
2022-11-30T06:59:08.411Z,20.74
2022-11-30T07:01:09.889Z,20.73
2022-11-30T07:03:11.282Z,20.72
2022-11-30T07:05:12.723Z,20.71
2022-11-30T07:07:14.020Z,20.71
2022-11-30T07:09:15.440Z,20.72
2022-11-30T07:11:16.828Z,20.77
2022-11-30T07:13:18.140Z,20.83
2022-11-30T07:15:19.471Z,20.88
2022-11-30T07:17:20.770Z,20.94
2022-11-30T07:19:22.058Z,21.01
2022-11-30T07:21:23.341Z,21.07
2022-11-30T07:23:43.297Z,21.13
2022-11-30T07:26:03.308Z,21.18
2022-11-30T07:28:04.648Z,21.21
2022-11-30T07:30:05.932Z,21.22
2022-11-30T07:32:07.245Z,21.28
2022-11-30T07:34:09.120Z,21.30
2022-11-30T07:36:10.436Z,21.30
2022-11-30T07:38:11.747Z,21.33
2022-11-30T07:40:13.064Z,21.36
2022-11-30T07:42:14.362Z,21.37
2022-11-30T07:44:15.633Z,21.40
2022-11-30T07:46:17.013Z,21.40
2022-11-30T07:48:18.421Z,21.39
2022-11-30T07:50:19.717Z,21.37
2022-11-30T07:52:20.997Z,21.36
2022-11-30T07:54:22.839Z,21.35
2022-11-30T07:56:24.223Z,21.32
2022-11-30T07:58:25.558Z,21.27
2022-11-30T08:00:26.842Z,21.22
2022-11-30T08:02:28.185Z,21.18
2022-11-30T08:04:29.593Z,21.15
2022-11-30T08:06:30.965Z,21.10
2022-11-30T08:08:32.627Z,21.09
2022-11-30T08:10:33.911Z,21.02
2022-11-30T08:12:35.255Z,20.98
2022-11-30T08:14:56.466Z,20.93
2022-11-30T08:16:58.345Z,20.88
2022-11-30T08:18:59.655Z,20.83
2022-11-30T08:21:00.984Z,20.80
2022-11-30T08:23:02.260Z,20.77
2022-11-30T08:25:03.585Z,20.76
2022-11-30T08:27:04.855Z,20.75
2022-11-30T08:29:06.156Z,20.74
2022-11-30T08:31:07.538Z,20.74
2022-11-30T08:33:08.932Z,20.74
2022-11-30T08:35:10.212Z,20.75
2022-11-30T08:37:11.500Z,20.78
2022-11-30T08:39:12.824Z,20.83
2022-11-30T08:41:14.144Z,20.88
2022-11-30T08:43:15.432Z,20.98
2022-11-30T08:45:16.767Z,21.05
2022-11-30T08:47:18.154Z,21.09
2022-11-30T08:49:22.893Z,21.14
2022-11-30T08:51:24.972Z,21.20
2022-11-30T08:53:26.381Z,21.23
2022-11-30T08:55:27.683Z,21.28
2022-11-30T08:57:28.969Z,21.32
2022-11-30T08:59:30.244Z,21.33
2022-11-30T09:01:33.275Z,21.36
2022-11-30T09:03:34.761Z,21.36
2022-11-30T09:05:36.036Z,21.37
2022-11-30T09:07:37.400Z,21.39
2022-11-30T09:09:39.141Z,21.39
2022-11-30T09:11:40.453Z,21.39
2022-11-30T09:13:41.737Z,21.39
2022-11-30T09:15:43.125Z,21.39
2022-11-30T09:17:44.716Z,21.39
2022-11-30T09:19:46.510Z,21.37
2022-11-30T09:21:51.822Z,21.34
2022-11-30T09:23:53.643Z,21.30
2022-11-30T09:25:54.918Z,21.25
2022-11-30T09:27:56.209Z,21.20
2022-11-30T09:29:58.208Z,21.19
2022-11-30T09:31:59.487Z,21.15
2022-11-30T09:34:00.812Z,21.10
2022-11-30T09:36:02.111Z,21.06
2022-11-30T09:38:05.066Z,21.03
2022-11-30T09:40:06.348Z,21.00
2022-11-30T09:42:07.640Z,20.96
2022-11-30T09:44:08.965Z,20.93
2022-11-30T09:46:10.279Z,20.91
2022-11-30T09:48:11.628Z,20.89
2022-11-30T09:50:12.924Z,20.86
2022-11-30T09:52:14.290Z,20.83
2022-11-30T09:54:15.628Z,20.83
2022-11-30T09:56:16.915Z,20.82
2022-11-30T09:58:18.184Z,20.83
2022-11-30T10:00:19.510Z,20.84
2022-11-30T10:02:22.498Z,20.87
2022-11-30T10:04:23.926Z,20.90
2022-11-30T10:06:26.271Z,20.98
2022-11-30T10:08:27.551Z,21.03
2022-11-30T10:10:33.102Z,21.08
2022-11-30T10:12:34.908Z,21.12
2022-11-30T10:14:36.224Z,21.17
2022-11-30T10:16:37.517Z,21.21
2022-11-30T10:18:38.986Z,21.22
2022-11-30T10:20:40.460Z,21.29
2022-11-30T10:22:41.745Z,21.30
2022-11-30T10:24:43.042Z,21.31
2022-11-30T10:26:44.345Z,21.33
2022-11-30T10:28:47.868Z,21.32
2022-11-30T10:30:49.820Z,21.34
2022-11-30T10:32:51.152Z,21.37
2022-11-30T10:34:52.444Z,21.38
2022-11-30T10:36:53.777Z,21.40
2022-11-30T10:38:55.060Z,21.40
2022-11-30T10:40:56.344Z,21.38
2022-11-30T10:42:57.636Z,21.39
2022-11-30T10:44:58.920Z,21.37
2022-11-30T10:47:00.304Z,21.37
2022-11-30T10:49:02.725Z,21.36
2022-11-30T10:51:04.552Z,21.34
2022-11-30T10:53:06.391Z,21.34
2022-11-30T10:55:07.696Z,21.32
2022-11-30T10:57:09.015Z,21.28
2022-11-30T10:59:10.428Z,21.26
2022-11-30T11:01:11.793Z,21.23
2022-11-30T11:03:13.143Z,21.18
2022-11-30T11:05:14.785Z,21.17
2022-11-30T11:07:16.168Z,21.13
2022-11-30T11:09:17.469Z,21.10
2022-11-30T11:11:18.748Z,21.07
2022-11-30T11:13:20.043Z,21.05
2022-11-30T11:15:21.355Z,21.02
2022-11-30T11:17:22.842Z,21.01
2022-11-30T11:19:24.157Z,21.00
2022-11-30T11:21:25.441Z,20.96
2022-11-30T11:23:26.759Z,20.95
2022-11-30T11:25:28.053Z,20.93
2022-11-30T11:27:29.373Z,20.91
2022-11-30T11:29:33.732Z,20.92
2022-11-30T11:31:35.042Z,20.91
2022-11-30T11:33:36.360Z,20.89
2022-11-30T11:35:37.652Z,20.89
2022-11-30T11:37:41.583Z,20.90
2022-11-30T11:39:42.925Z,20.93
2022-11-30T11:41:46.981Z,20.94
2022-11-30T11:43:48.476Z,21.00
2022-11-30T11:45:49.769Z,21.00
2022-11-30T11:47:51.062Z,21.05
2022-11-30T11:49:52.817Z,21.05
2022-11-30T11:51:54.094Z,21.07
2022-11-30T11:53:55.492Z,21.09
2022-11-30T11:55:56.846Z,21.14
2022-11-30T11:58:01.161Z,21.15
2022-11-30T12:00:02.465Z,21.15
2022-11-30T12:02:03.752Z,21.16
2022-11-30T12:04:05.130Z,21.17
2022-11-30T12:06:06.441Z,21.21
2022-11-30T12:08:07.951Z,21.21
2022-11-30T12:10:28.213Z,21.21
2022-11-30T12:12:30.603Z,21.21
2022-11-30T12:14:31.916Z,21.24
2022-11-30T12:16:33.327Z,21.21
2022-11-30T12:18:34.723Z,21.21
2022-11-30T12:20:36.009Z,21.22
2022-11-30T12:22:40.048Z,21.24
2022-11-30T12:24:41.386Z,21.24
2022-11-30T12:26:42.724Z,21.24
2022-11-30T12:28:44.022Z,21.24
2022-11-30T12:30:45.326Z,21.21
2022-11-30T12:32:46.605Z,21.19
2022-11-30T12:34:48.096Z,21.19
2022-11-30T12:36:49.422Z,21.18
2022-11-30T12:38:50.928Z,21.18
2022-11-30T12:40:52.407Z,21.16
2022-11-30T12:42:53.675Z,21.14
2022-11-30T12:44:55.009Z,21.14
2022-11-30T12:46:56.389Z,21.12
2022-11-30T12:48:57.751Z,21.14
2022-11-30T12:50:59.217Z,21.14
2022-11-30T12:53:00.532Z,21.14
2022-11-30T12:55:01.798Z,21.11
2022-11-30T12:57:03.075Z,21.10
2022-11-30T12:59:04.358Z,21.09
2022-11-30T13:01:05.687Z,21.11
2022-11-30T13:03:07.097Z,21.10
2022-11-30T13:05:08.565Z,21.09
2022-11-30T13:07:11.833Z,21.07
2022-11-30T13:09:13.737Z,21.07
2022-11-30T13:11:15.058Z,21.07
2022-11-30T13:13:16.333Z,21.08
2022-11-30T13:15:17.625Z,21.08
2022-11-30T13:17:18.913Z,21.09
2022-11-30T13:19:20.203Z,21.08
2022-11-30T13:21:21.519Z,21.07
2022-11-30T13:23:22.802Z,21.22
2022-11-30T13:25:59.368Z,21.48
2022-11-30T13:27:45.560Z,20.78
2022-11-30T13:29:46.943Z,21.68
2022-11-30T13:31:48.498Z,21.69
2022-11-30T13:33:49.945Z,21.74
2022-11-30T13:35:51.220Z,21.77
2022-11-30T13:38:13.238Z,21.78
2022-11-30T13:40:13.747Z,21.82
2022-11-30T13:42:15.017Z,21.68
2022-11-30T13:44:16.330Z,21.45
2022-11-30T13:46:17.651Z,21.20
2022-11-30T13:48:19.172Z,21.15
2022-11-30T13:50:20.466Z,21.13
2022-11-30T13:52:23.522Z,21.10
2022-11-30T13:54:31.488Z,21.07
2022-11-30T13:56:33.096Z,21.05
2022-11-30T13:58:34.374Z,21.02
2022-11-30T14:00:35.812Z,20.96
2022-11-30T14:02:42.055Z,20.88
2022-11-30T14:04:43.406Z,20.81
2022-11-30T14:06:44.715Z,20.75
2022-11-30T14:08:46.031Z,20.68
2022-11-30T14:10:47.319Z,20.62
2022-11-30T14:12:48.855Z,20.57
2022-11-30T14:14:50.164Z,20.57
2022-11-30T14:16:51.444Z,20.54
2022-11-30T14:18:55.725Z,20.57
2022-11-30T14:20:57.454Z,20.61
2022-11-30T14:22:58.737Z,20.69
2022-11-30T14:25:00.036Z,20.75
2022-11-30T14:27:01.321Z,20.81
2022-11-30T14:29:05.422Z,20.85
2022-11-30T14:31:06.923Z,20.91
2022-11-30T14:33:08.663Z,20.94
2022-11-30T14:35:10.638Z,20.98
2022-11-30T14:37:11.917Z,21.01
2022-11-30T14:39:13.209Z,21.04
2022-11-30T14:41:15.658Z,21.07
2022-11-30T14:43:16.936Z,21.09
2022-11-30T14:45:18.383Z,21.10
2022-11-30T14:47:19.708Z,21.11
2022-11-30T14:49:21.207Z,21.13
2022-11-30T14:51:22.512Z,21.17
2022-11-30T14:53:23.836Z,21.20
2022-11-30T14:55:25.240Z,21.19
2022-11-30T14:57:26.556Z,21.22
2022-11-30T14:59:27.856Z,21.19
2022-11-30T15:01:29.204Z,21.22
2022-11-30T15:03:33.564Z,21.21
2022-11-30T15:05:37.276Z,21.23
2022-11-30T15:07:38.622Z,21.22
2022-11-30T15:09:41.660Z,21.24
2022-11-30T15:11:43.004Z,21.21
2022-11-30T15:13:44.293Z,21.21
2022-11-30T15:15:45.763Z,21.21
2022-11-30T15:17:47.049Z,21.19
2022-11-30T15:19:48.955Z,21.18
2022-11-30T15:21:50.892Z,21.19
2022-11-30T15:23:52.251Z,21.18
2022-11-30T15:25:56.378Z,21.15
2022-11-30T15:27:58.500Z,21.11
2022-11-30T15:29:59.848Z,21.08
2022-11-30T15:32:01.234Z,21.03
2022-11-30T15:34:02.553Z,21.02
2022-11-30T15:36:32.396Z,20.96
2022-11-30T15:38:25.409Z,20.92
2022-11-30T15:40:26.723Z,20.90
2022-11-30T15:42:28.045Z,20.87
2022-11-30T15:44:29.507Z,20.84
2022-11-30T15:46:31.031Z,20.82
2022-11-30T15:48:32.370Z,20.81
2022-11-30T15:50:33.705Z,20.79
2022-11-30T15:52:35.028Z,20.79
2022-11-30T15:54:36.310Z,21.23
2022-11-30T15:56:37.952Z,21.51
2022-11-30T15:58:45.408Z,21.71
2022-11-30T16:00:46.911Z,21.94
2022-11-30T16:02:48.363Z,21.96
2022-11-30T16:04:49.690Z,21.97
2022-11-30T16:06:50.968Z,21.98
2022-11-30T16:08:52.352Z,21.94
2022-11-30T16:10:53.647Z,22.03
2022-11-30T16:12:54.942Z,22.11
2022-11-30T16:14:56.215Z,22.13
2022-11-30T16:16:57.599Z,22.23
2022-11-30T16:18:59.050Z,22.32
2022-11-30T16:21:00.373Z,22.32
2022-11-30T16:23:06.127Z,22.38
2022-11-30T16:25:07.764Z,22.46
2022-11-30T16:27:09.032Z,22.50
2022-11-30T16:29:10.480Z,22.68
2022-11-30T16:31:11.764Z,22.29
2022-11-30T16:33:13.344Z,21.91
2022-11-30T16:35:14.712Z,21.61
2022-11-30T16:37:19.152Z,21.84
2022-11-30T16:39:23.445Z,22.04
2022-11-30T16:41:25.032Z,22.15
2022-11-30T16:43:26.323Z,22.23
2022-11-30T16:45:27.694Z,22.17
2022-11-30T16:47:29.284Z,22.19
2022-11-30T16:49:30.617Z,22.19
2022-11-30T16:51:31.934Z,22.17
2022-11-30T16:53:33.230Z,22.16
2022-11-30T16:55:37.779Z,22.14
2022-11-30T16:57:39.212Z,22.03
2022-11-30T16:59:40.480Z,21.74
2022-11-30T17:01:44.871Z,21.82
2022-11-30T17:03:46.740Z,21.93
2022-11-30T17:05:48.169Z,22.04
2022-11-30T17:07:49.558Z,22.10
2022-11-30T17:09:50.879Z,22.03
2022-11-30T17:11:52.213Z,21.82
2022-11-30T17:13:53.476Z,21.96
2022-11-30T17:15:54.814Z,22.08
2022-11-30T17:17:59.218Z,22.18
2022-11-30T17:20:00.545Z,22.24
2022-11-30T17:22:01.824Z,22.34
2022-11-30T17:24:03.149Z,22.37
2022-11-30T17:26:04.467Z,22.43
2022-11-30T17:28:05.773Z,22.51
2022-11-30T17:30:07.057Z,22.49
2022-11-30T17:32:08.584Z,22.26
2022-11-30T17:34:09.865Z,22.32
2022-11-30T17:36:11.193Z,22.41
2022-11-30T17:38:12.464Z,22.53
2022-11-30T17:40:15.471Z,22.59
2022-11-30T17:42:16.780Z,22.59
2022-11-30T17:44:18.140Z,22.57
2022-11-30T17:50:25.212Z,22.51
2022-11-30T17:52:26.616Z,22.47
2022-11-30T17:54:30.568Z,22.39
2022-11-30T17:56:31.844Z,22.43
2022-11-30T17:58:36.084Z,22.41
2022-11-30T18:00:39.181Z,22.38
2022-11-30T18:02:43.638Z,22.33
2022-11-30T18:04:45.163Z,22.28
2022-11-30T18:06:46.577Z,22.22
2022-11-30T18:08:47.862Z,22.19
2022-11-30T18:10:49.145Z,22.16
2022-11-30T18:12:50.628Z,22.10
2022-11-30T18:14:54.672Z,22.11
2022-11-30T18:16:56.056Z,21.71
2022-11-30T18:18:58.416Z,21.54
2022-11-30T18:20:59.701Z,21.73
2022-11-30T18:23:00.988Z,21.84
2022-11-30T18:25:02.283Z,21.92
2022-11-30T18:27:03.616Z,21.98
2022-11-30T18:29:04.930Z,22.01
2022-11-30T18:31:09.045Z,22.04
2022-11-30T18:33:10.415Z,22.03
2022-11-30T18:35:11.735Z,22.07
2022-11-30T18:37:13.032Z,22.13
2022-11-30T18:39:14.396Z,22.32
2022-11-30T18:41:15.696Z,22.34
2022-11-30T18:43:16.972Z,22.44
2022-11-30T18:45:18.308Z,22.52
2022-11-30T18:47:19.586Z,22.59
2022-11-30T18:49:22.624Z,22.64
2022-11-30T18:51:23.922Z,22.71
2022-11-30T18:53:28.167Z,22.73
2022-11-30T18:55:29.480Z,22.87
2022-11-30T18:57:30.799Z,22.79
2022-11-30T18:59:32.204Z,22.85
2022-11-30T19:01:33.621Z,22.76
2022-11-30T19:03:34.992Z,22.80
2022-11-30T19:05:36.515Z,22.72
2022-11-30T19:07:40.942Z,22.71
2022-11-30T19:09:42.824Z,22.43
2022-11-30T19:11:44.153Z,22.24
2022-11-30T19:13:45.483Z,22.33
2022-11-30T19:15:46.768Z,22.38
2022-11-30T19:17:48.076Z,22.37
2022-11-30T19:19:49.439Z,22.38
2022-11-30T19:21:50.787Z,22.32
2022-11-30T19:23:52.068Z,22.31
2022-11-30T19:25:53.424Z,22.26
2022-11-30T19:27:55.926Z,22.27
2022-11-30T19:29:57.198Z,22.19
2022-11-30T19:31:58.560Z,22.17
2022-11-30T19:33:59.846Z,22.10
2022-11-30T19:36:01.801Z,22.12
2022-11-30T19:38:03.233Z,22.14
2022-11-30T19:40:04.544Z,22.13
2022-11-30T19:42:07.293Z,22.01
2022-11-30T19:44:08.592Z,22.00
2022-11-30T19:46:09.937Z,21.97
2022-11-30T19:48:14.134Z,21.93
2022-11-30T19:50:15.420Z,21.88
2022-11-30T19:52:19.963Z,21.86
2022-11-30T19:54:21.259Z,21.79
2022-11-30T19:56:23.276Z,21.91
2022-11-30T19:58:24.592Z,21.67
2022-11-30T20:00:25.870Z,21.43
2022-11-30T20:02:27.247Z,21.62
2022-11-30T20:04:28.539Z,21.80
2022-11-30T20:06:32.635Z,21.98
2022-11-30T20:08:36.886Z,22.15
2022-11-30T20:10:38.157Z,22.26
2022-11-30T20:12:39.701Z,22.37
2022-11-30T20:14:40.986Z,21.78
2022-11-30T20:16:42.312Z,22.63
2022-11-30T20:18:46.289Z,22.70
2022-11-30T20:20:47.713Z,22.72
2022-11-30T20:22:49.027Z,22.82
2022-11-30T20:24:51.073Z,22.87
2022-11-30T20:26:52.404Z,22.83
2022-11-30T20:28:53.713Z,22.85
2022-11-30T20:30:55.106Z,22.84
2022-11-30T20:32:56.420Z,22.81
2022-11-30T20:34:57.708Z,22.81
2022-11-30T20:36:59.102Z,22.78
2022-11-30T20:39:00.382Z,22.77
2022-11-30T20:41:01.686Z,22.72
2022-11-30T20:43:02.969Z,22.67
2022-11-30T20:45:07.288Z,22.61
2022-11-30T20:47:08.609Z,22.56
2022-11-30T20:49:09.894Z,22.51
2022-11-30T20:51:30.166Z,21.81
2022-11-30T20:53:32.380Z,21.65
2022-11-30T20:55:36.477Z,21.57
2022-11-30T20:57:37.758Z,21.51
2022-11-30T20:59:42.548Z,21.46
2022-11-30T21:01:43.899Z,21.40
2022-11-30T21:03:45.180Z,21.36
2022-11-30T21:05:46.462Z,21.30
2022-11-30T21:07:47.828Z,21.42
2022-11-30T21:09:49.419Z,21.99
2022-11-30T21:11:51.052Z,22.08
2022-11-30T21:13:52.387Z,22.06
2022-11-30T21:15:53.703Z,22.22
2022-11-30T21:17:55.027Z,22.17
2022-11-30T21:19:59.232Z,21.95
2022-11-30T21:22:00.616Z,21.89
2022-11-30T21:24:04.620Z,21.90
2022-11-30T21:26:05.924Z,21.98
2022-11-30T21:28:07.558Z,21.96
2022-11-30T21:30:08.835Z,22.04
2022-11-30T21:32:10.111Z,21.87
2022-11-30T21:34:11.395Z,21.76
2022-11-30T21:36:13.053Z,21.73
2022-11-30T21:38:14.316Z,21.72
2022-11-30T21:40:16.301Z,21.74
2022-11-30T21:42:17.676Z,21.76
2022-11-30T21:44:18.995Z,21.78
2022-11-30T21:46:20.406Z,21.79
2022-11-30T21:48:21.712Z,21.85
2022-11-30T21:50:27.038Z,21.85
2022-11-30T21:52:28.887Z,21.85
2022-11-30T21:54:30.224Z,21.86
2022-11-30T21:56:32.372Z,21.86
2022-11-30T21:58:33.704Z,21.84
2022-11-30T22:00:35.132Z,21.79
2022-11-30T22:02:37.309Z,21.72
2022-11-30T22:04:39.098Z,21.69
2022-11-30T22:06:40.360Z,21.63
2022-11-30T22:08:41.641Z,21.58
2022-11-30T22:10:42.936Z,21.52
2022-11-30T22:12:45.533Z,21.47
2022-11-30T22:14:46.825Z,21.41
2022-11-30T22:16:48.122Z,21.36
2022-11-30T22:18:49.403Z,21.31
2022-11-30T22:20:52.771Z,21.25
2022-11-30T22:22:54.033Z,21.20
2022-11-30T22:24:55.730Z,21.16
2022-11-30T22:26:57.068Z,21.12
2022-11-30T22:28:58.367Z,21.08
2022-11-30T22:30:59.683Z,21.04
2022-11-30T22:33:00.976Z,21.01
2022-11-30T22:35:02.278Z,20.98
2022-11-30T22:37:03.578Z,20.96
2022-11-30T22:39:04.908Z,20.97
2022-11-30T22:41:06.233Z,20.98
2022-11-30T22:43:07.517Z,20.97
2022-11-30T22:45:08.812Z,20.98
2022-11-30T22:47:10.631Z,21.00
2022-11-30T22:49:15.834Z,21.02
2022-11-30T22:51:20.118Z,21.09
2022-11-30T22:53:21.410Z,21.16
2022-11-30T22:55:22.975Z,21.21
2022-11-30T22:57:24.343Z,21.29
2022-11-30T22:59:25.620Z,21.37
2022-11-30T23:01:26.948Z,21.42
2022-11-30T23:03:28.378Z,21.47
2022-11-30T23:05:29.740Z,21.50
2022-11-30T23:07:32.356Z,21.53
2022-11-30T23:09:33.803Z,21.55
2022-11-30T23:11:35.068Z,21.58
2022-11-30T23:13:36.388Z,21.61
2022-11-30T23:15:37.656Z,21.66
2022-11-30T23:17:38.954Z,21.59
2022-11-30T23:19:40.220Z,21.57
2022-11-30T23:21:42.207Z,21.54
2022-11-30T23:23:43.668Z,21.55
2022-11-30T23:25:45.168Z,21.53
2022-11-30T23:27:46.431Z,21.52
2022-11-30T23:29:48.054Z,21.50
2022-11-30T23:31:49.634Z,21.46
2022-11-30T23:33:51.013Z,21.43
2022-11-30T23:35:52.356Z,21.40
2022-11-30T23:37:53.624Z,21.39
2022-11-30T23:39:54.921Z,21.34
2022-11-30T23:41:56.380Z,21.31
2022-11-30T23:43:57.675Z,21.29
2022-11-30T23:45:59.025Z,21.26
2022-11-30T23:48:00.327Z,21.22
2022-11-30T23:50:01.617Z,21.20
2022-11-30T23:52:02.963Z,21.17
2022-11-30T23:54:04.450Z,21.12
2022-11-30T23:56:05.769Z,21.11
2022-11-30T23:58:07.037Z,21.10
